createdAt,value
2017-09-10T00:00:11.549Z,3.00
2017-09-10T00:02:39.731Z,3.30
2017-09-10T00:05:07.165Z,2.63
2017-09-10T00:07:34.588Z,2.70
2017-09-10T00:10:02.076Z,3.23
2017-09-10T00:12:29.509Z,3.87
2017-09-10T00:14:56.942Z,2.87
2017-09-10T00:17:24.365Z,3.17
2017-09-10T00:19:52.633Z,2.67
2017-09-10T00:22:20.820Z,3.10
2017-09-10T00:24:49.019Z,3.30
2017-09-10T00:27:16.446Z,2.60
2017-09-10T00:29:44.641Z,3.50
2017-09-10T00:32:12.064Z,3.50
2017-09-10T00:34:40.278Z,3.80
2017-09-10T00:37:07.696Z,3.20
2017-09-10T00:39:35.136Z,3.60
2017-09-10T00:42:02.563Z,3.17
2017-09-10T00:44:30.009Z,4.00
2017-09-10T00:46:57.428Z,3.83
2017-09-10T00:49:25.624Z,3.90
2017-09-10T00:51:53.824Z,4.17
2017-09-10T00:54:21.251Z,3.73
2017-09-10T00:56:48.690Z,3.27
2017-09-10T00:59:16.113Z,3.67
2017-09-10T01:01:43.580Z,3.93
2017-09-10T01:04:11.012Z,2.70
2017-09-10T01:06:38.441Z,3.33
2017-09-10T01:09:05.864Z,2.90
2017-09-10T01:11:33.293Z,2.87
2017-09-10T01:14:00.719Z,3.60
2017-09-10T01:16:28.148Z,3.17
2017-09-10T01:18:56.353Z,3.90
2017-09-10T01:21:23.780Z,3.23
2017-09-10T01:23:51.972Z,3.40
2017-09-10T01:26:19.408Z,3.43
2017-09-10T01:28:47.595Z,3.40
2017-09-10T01:31:15.797Z,3.40
2017-09-10T01:33:43.214Z,2.63
2017-09-10T01:36:11.412Z,2.80
2017-09-10T01:38:38.832Z,3.07
2017-09-10T01:41:07.040Z,2.97
2017-09-10T01:43:34.456Z,2.67
2017-09-10T01:46:01.879Z,3.00
2017-09-10T01:48:29.309Z,2.57
2017-09-10T01:50:56.731Z,3.60
2017-09-10T01:53:24.157Z,2.60
2017-09-10T01:55:51.575Z,2.90
2017-09-10T01:58:19.004Z,2.67
2017-09-10T02:00:47.195Z,2.53
2017-09-10T02:03:14.624Z,3.30
2017-09-10T02:05:42.047Z,3.80
2017-09-10T02:08:09.480Z,3.30
2017-09-10T02:10:36.903Z,3.40
2017-09-10T02:13:04.332Z,2.90
2017-09-10T02:15:31.780Z,2.93
2017-09-10T02:17:59.204Z,3.80
2017-09-10T02:20:26.627Z,3.30
2017-09-10T02:22:54.060Z,3.23
2017-09-10T02:25:21.492Z,3.63
2017-09-10T02:27:48.920Z,4.10
2017-09-10T02:30:17.103Z,3.40
2017-09-10T02:32:44.543Z,3.00
2017-09-10T02:35:12.729Z,3.70
2017-09-10T02:37:40.919Z,2.97
2017-09-10T02:40:08.340Z,3.40
2017-09-10T02:42:36.527Z,3.63
2017-09-10T02:45:03.955Z,3.47
2017-09-10T02:47:31.380Z,2.93
2017-09-10T02:49:58.809Z,2.80
2017-09-10T02:52:26.233Z,3.67
2017-09-10T02:54:53.659Z,2.90
2017-09-10T02:57:21.080Z,3.17
2017-09-10T02:59:48.514Z,3.10
2017-09-10T03:02:15.932Z,3.10
2017-09-10T03:04:43.366Z,3.23
2017-09-10T03:07:10.795Z,3.13
2017-09-10T03:09:38.987Z,2.83
2017-09-10T03:12:06.408Z,3.27
2017-09-10T03:14:34.599Z,3.80
2017-09-10T03:17:02.783Z,2.93
2017-09-10T03:19:30.212Z,3.03
2017-09-10T03:21:57.640Z,3.03
2017-09-10T03:24:25.076Z,3.17
2017-09-10T03:26:52.495Z,2.20
2017-09-10T03:29:20.697Z,2.83
2017-09-10T03:31:48.115Z,2.83
2017-09-10T03:34:16.311Z,2.40
2017-09-10T03:36:43.742Z,3.40
2017-09-10T03:39:11.151Z,3.70
2017-09-10T03:41:38.587Z,3.73
2017-09-10T03:44:06.007Z,2.80
2017-09-10T03:46:33.433Z,3.10
2017-09-10T03:49:00.856Z,3.33
2017-09-10T03:51:28.287Z,3.40
2017-09-10T03:53:56.480Z,3.57
2017-09-10T03:56:23.913Z,3.70
2017-09-10T03:58:51.332Z,2.80
2017-09-10T04:01:19.744Z,3.53
2017-09-10T04:03:47.168Z,3.33
2017-09-10T04:06:14.611Z,3.60
2017-09-10T04:08:42.015Z,2.80
2017-09-10T04:11:09.443Z,3.60
2017-09-10T04:13:36.868Z,3.60
2017-09-10T04:16:04.299Z,3.23
2017-09-10T04:18:32.488Z,3.60
2017-09-10T04:20:59.920Z,2.73
2017-09-10T04:23:28.111Z,2.97
2017-09-10T04:25:56.304Z,3.63
2017-09-10T04:28:23.729Z,3.37
2017-09-10T04:30:51.923Z,3.70
2017-09-10T04:33:19.352Z,4.00
2017-09-10T04:35:47.556Z,3.73
2017-09-10T04:38:15.733Z,4.20
2017-09-10T04:40:43.155Z,3.10
2017-09-10T04:43:10.588Z,3.00
2017-09-10T04:45:38.017Z,2.97
2017-09-10T04:48:05.436Z,3.50
2017-09-10T04:50:33.628Z,3.83
2017-09-10T04:53:01.064Z,4.00
2017-09-10T04:55:29.257Z,3.00
2017-09-10T04:57:57.447Z,4.00
2017-09-10T05:00:24.867Z,3.10
2017-09-10T05:02:53.096Z,3.27
2017-09-10T05:05:20.523Z,2.50
2017-09-10T05:07:47.948Z,3.27
2017-09-10T05:10:16.137Z,3.70
2017-09-10T05:12:44.334Z,3.03
2017-09-10T05:15:11.748Z,4.90
2017-09-10T05:17:39.168Z,3.47
2017-09-10T05:20:06.601Z,3.77
2017-09-10T05:22:34.028Z,4.20
2017-09-10T05:25:02.216Z,3.10
2017-09-10T05:27:30.426Z,3.40
2017-09-10T05:29:57.844Z,4.80
2017-09-10T05:32:26.032Z,3.73
2017-09-10T05:34:53.455Z,3.90
2017-09-10T05:37:20.875Z,4.17
2017-09-10T05:39:48.304Z,4.17
2017-09-10T05:42:15.730Z,4.90
2017-09-10T05:44:43.153Z,3.60
2017-09-10T05:47:10.579Z,4.33
2017-09-10T05:49:38.004Z,3.43
2017-09-10T05:52:05.432Z,3.93
2017-09-10T05:54:32.860Z,3.90
2017-09-10T05:57:00.294Z,4.20
2017-09-10T05:59:27.731Z,4.03
2017-09-10T06:01:55.930Z,3.70
2017-09-10T06:04:24.127Z,3.37
2017-09-10T06:06:51.544Z,3.43
2017-09-10T06:09:19.759Z,4.40
2017-09-10T06:11:47.191Z,3.57
2017-09-10T06:14:14.615Z,4.20
2017-09-10T06:16:42.867Z,3.80
2017-09-10T06:19:10.304Z,4.27
2017-09-10T06:21:37.728Z,3.67
2017-09-10T06:24:05.931Z,4.77
2017-09-10T06:26:33.350Z,4.80
2017-09-10T06:29:01.540Z,5.53
2017-09-10T06:31:28.972Z,5.83
2017-09-10T06:33:57.163Z,4.73
2017-09-10T06:36:25.359Z,4.57
2017-09-10T06:38:52.806Z,4.93
2017-09-10T06:41:20.231Z,4.40
2017-09-10T06:43:48.469Z,5.40
2017-09-10T06:46:15.904Z,5.33
2017-09-10T06:48:43.324Z,5.00
2017-09-10T06:51:11.600Z,5.63
2017-09-10T06:53:39.792Z,4.80
2017-09-10T06:56:07.988Z,5.10
2017-09-10T06:58:35.424Z,6.43
2017-09-10T07:01:03.616Z,4.43
2017-09-10T07:03:31.040Z,4.97
2017-09-10T07:05:59.236Z,4.97
2017-09-10T07:08:26.660Z,5.73
2017-09-10T07:10:54.096Z,5.53
2017-09-10T07:13:21.516Z,5.60
2017-09-10T07:15:48.939Z,5.77
2017-09-10T07:18:18.152Z,4.37
2017-09-10T07:20:46.343Z,5.20
2017-09-10T07:23:13.768Z,5.73
2017-09-10T07:25:41.976Z,4.90
2017-09-10T07:28:09.407Z,6.20
2017-09-10T07:30:37.607Z,5.10
2017-09-10T07:33:05.040Z,5.97
2017-09-10T07:35:33.236Z,5.43
2017-09-10T07:38:00.664Z,5.63
2017-09-10T07:40:28.855Z,5.33
2017-09-10T07:42:57.058Z,5.70
2017-09-10T07:45:24.472Z,5.27
2017-09-10T07:47:52.676Z,5.30
2017-09-10T07:50:20.092Z,5.00
2017-09-10T07:52:48.288Z,4.30
2017-09-10T07:55:15.707Z,5.53
2017-09-10T07:57:43.136Z,4.63
2017-09-10T08:00:10.559Z,4.70
2017-09-10T08:02:38.747Z,4.90
2017-09-10T08:05:06.168Z,4.87
2017-09-10T08:07:34.369Z,3.33
2017-09-10T08:10:01.796Z,4.30
2017-09-10T08:12:29.235Z,3.27
2017-09-10T08:14:56.663Z,4.03
2017-09-10T08:17:24.091Z,3.37
2017-09-10T08:19:51.521Z,3.83
2017-09-10T08:22:18.963Z,3.73
2017-09-10T08:24:46.393Z,3.80
2017-09-10T08:27:13.823Z,4.47
2017-09-10T08:29:41.249Z,3.70
2017-09-10T08:32:08.673Z,3.70
2017-09-10T08:34:36.100Z,3.17
2017-09-10T08:37:03.519Z,3.00
2017-09-10T08:39:31.711Z,3.47
2017-09-10T08:41:59.900Z,3.57
2017-09-10T08:44:27.331Z,4.43
2017-09-10T08:46:55.516Z,3.97
2017-09-10T08:49:23.728Z,3.70
2017-09-10T08:51:51.148Z,3.73
2017-09-10T08:54:19.344Z,3.90
2017-09-10T08:56:46.769Z,3.73
2017-09-10T08:59:14.963Z,3.90
2017-09-10T09:01:42.389Z,3.60
2017-09-10T09:04:09.820Z,4.03
2017-09-10T09:06:37.256Z,3.50
2017-09-10T09:09:04.693Z,2.40
2017-09-10T09:11:32.116Z,3.60
2017-09-10T09:14:00.397Z,2.60
2017-09-10T09:16:28.597Z,2.60
2017-09-10T09:18:56.025Z,3.17
2017-09-10T09:21:24.220Z,4.40
2017-09-10T09:23:52.435Z,4.10
2017-09-10T09:26:19.861Z,3.33
2017-09-10T09:28:47.288Z,2.40
2017-09-10T09:31:15.511Z,2.80
2017-09-10T09:33:42.927Z,3.07
2017-09-10T09:36:11.119Z,2.70
2017-09-10T09:38:38.548Z,3.00
2017-09-10T09:41:05.990Z,2.20
2017-09-10T09:43:33.435Z,3.00
2017-09-10T09:46:00.922Z,2.60
2017-09-10T09:48:28.344Z,2.60
2017-09-10T09:50:55.811Z,3.97
2017-09-10T09:53:23.243Z,3.07
2017-09-10T09:55:50.682Z,3.57
2017-09-10T09:58:18.104Z,4.10
2017-09-10T10:00:45.527Z,3.30
2017-09-10T10:03:13.024Z,3.63
2017-09-10T10:05:42.316Z,3.60
2017-09-10T10:08:09.758Z,3.13
2017-09-10T10:10:37.189Z,3.47
2017-09-10T10:13:04.616Z,3.03
2017-09-10T10:15:32.084Z,3.87
2017-09-10T10:18:00.275Z,3.23
2017-09-10T10:20:28.804Z,2.57
2017-09-10T10:22:57.004Z,4.00
2017-09-10T10:25:25.200Z,4.67
2017-09-10T10:27:52.628Z,4.57
2017-09-10T10:30:20.812Z,3.80
2017-09-10T10:32:48.248Z,3.87
2017-09-10T10:35:15.667Z,3.33
2017-09-10T10:37:44.180Z,3.63
2017-09-10T10:40:12.373Z,4.07
2017-09-10T10:42:40.573Z,3.67
2017-09-10T10:45:07.995Z,3.60
2017-09-10T10:47:36.191Z,3.40
2017-09-10T10:50:03.715Z,3.80
2017-09-10T10:52:31.916Z,3.40
2017-09-10T10:54:59.463Z,4.00
2017-09-10T10:57:26.876Z,3.63
2017-09-10T10:59:54.300Z,3.77
2017-09-10T11:02:21.731Z,4.20
2017-09-10T11:04:49.924Z,3.43
2017-09-10T11:07:17.352Z,2.57
2017-09-10T11:09:45.629Z,2.43
2017-09-10T11:12:13.827Z,2.57
2017-09-10T11:14:42.025Z,2.40
2017-09-10T11:17:09.472Z,2.20
2017-09-10T11:19:36.920Z,2.93
2017-09-10T11:22:05.173Z,2.63
2017-09-10T11:24:33.377Z,3.00
2017-09-10T11:27:00.796Z,2.50
2017-09-10T11:29:28.996Z,2.07
2017-09-10T11:31:57.188Z,2.50
2017-09-10T11:34:24.625Z,2.97
2017-09-10T11:36:52.811Z,2.17
2017-09-10T11:39:21.260Z,2.70
2017-09-10T11:41:49.456Z,2.40
2017-09-10T11:44:16.880Z,2.40
2017-09-10T11:46:44.308Z,3.30
2017-09-10T11:49:11.744Z,3.00
2017-09-10T11:51:39.164Z,2.40
2017-09-10T11:54:07.369Z,2.93
2017-09-10T11:56:34.852Z,2.97
2017-09-10T11:59:02.285Z,2.87
2017-09-10T12:01:29.725Z,3.23
2017-09-10T12:03:57.159Z,2.77
2017-09-10T12:06:24.622Z,3.43
2017-09-10T12:08:52.076Z,3.40
2017-09-10T12:11:20.267Z,2.90
2017-09-10T12:13:48.467Z,2.07
2017-09-10T12:16:15.888Z,3.00
2017-09-10T12:18:44.084Z,2.90
2017-09-10T12:21:11.521Z,2.60
2017-09-10T12:23:39.788Z,2.73
2017-09-10T12:26:07.225Z,3.30
2017-09-10T12:28:34.659Z,2.80
2017-09-10T12:31:02.095Z,3.20
2017-09-10T12:33:29.516Z,2.47
2017-09-10T12:35:57.525Z,2.60
2017-09-10T12:38:24.944Z,2.10
2017-09-10T12:40:53.267Z,2.60
2017-09-10T12:43:20.688Z,2.40
2017-09-10T12:45:48.896Z,2.27
2017-09-10T12:48:16.329Z,2.40
2017-09-10T12:50:44.581Z,1.87
2017-09-10T12:53:11.999Z,1.90
2017-09-10T12:55:39.433Z,1.80
2017-09-10T12:58:06.860Z,2.00
2017-09-10T13:00:37.150Z,1.80
2017-09-10T13:03:04.564Z,1.90
2017-09-10T13:05:33.746Z,1.73
2017-09-10T13:08:01.978Z,1.73
2017-09-10T13:10:29.401Z,2.10
2017-09-10T13:13:02.927Z,1.63
2017-09-10T13:15:30.376Z,2.40
2017-09-10T13:17:57.795Z,1.50
2017-09-10T13:20:26.070Z,2.00
2017-09-10T13:22:54.255Z,1.63
2017-09-10T13:25:21.698Z,2.13
2017-09-10T13:27:49.940Z,1.90
2017-09-10T13:30:17.369Z,2.00
2017-09-10T13:32:44.824Z,1.50
2017-09-10T13:35:12.246Z,1.20
2017-09-10T13:37:39.686Z,1.17
2017-09-10T13:40:07.149Z,1.20
2017-09-10T13:42:35.349Z,1.90
2017-09-10T13:45:02.884Z,1.20
2017-09-10T13:47:31.095Z,1.27
2017-09-10T13:49:58.657Z,1.20
2017-09-10T13:52:26.081Z,1.10
2017-09-10T13:54:54.282Z,1.13
2017-09-10T13:57:21.725Z,1.13
2017-09-10T13:59:49.929Z,1.87
2017-09-10T14:02:17.657Z,1.60
2017-09-10T14:04:45.132Z,1.70
2017-09-10T14:07:13.326Z,1.17
2017-09-10T14:09:40.745Z,1.47
2017-09-10T14:12:08.957Z,1.37
2017-09-10T14:14:36.465Z,1.40
2017-09-10T14:17:04.664Z,1.33
2017-09-10T14:19:32.108Z,1.30
2017-09-10T14:22:02.308Z,1.47
2017-09-10T14:24:30.593Z,1.50
2017-09-10T14:26:58.789Z,1.10
2017-09-10T14:29:26.223Z,1.10
2017-09-10T14:31:54.403Z,1.40
2017-09-10T14:34:21.840Z,1.63
2017-09-10T14:36:49.261Z,1.20
2017-09-10T14:39:16.696Z,1.40
2017-09-10T14:41:44.128Z,1.60
2017-09-10T14:44:11.584Z,1.60
2017-09-10T14:46:39.851Z,1.50
2017-09-10T14:49:08.048Z,1.50
2017-09-10T14:51:36.308Z,1.73
2017-09-10T14:54:03.732Z,1.60
2017-09-10T14:56:31.164Z,1.60
2017-09-10T14:58:58.682Z,1.60
2017-09-10T15:01:26.873Z,1.80
2017-09-10T15:03:54.336Z,1.40
2017-09-10T15:06:21.781Z,1.47
2017-09-10T15:08:50.002Z,1.50
2017-09-10T15:11:17.497Z,1.30
2017-09-10T15:13:44.947Z,1.90
2017-09-10T15:16:12.366Z,1.57
2017-09-10T15:18:39.793Z,1.60
2017-09-10T15:21:07.241Z,1.63
2017-09-10T15:23:36.496Z,2.03
2017-09-10T15:26:04.000Z,2.00
2017-09-10T15:28:33.493Z,2.00
2017-09-10T15:31:00.950Z,1.50
2017-09-10T15:33:28.377Z,2.20
2017-09-10T15:35:55.808Z,1.53
2017-09-10T15:38:23.233Z,1.60
2017-09-10T15:40:51.452Z,1.50
2017-09-10T15:43:18.872Z,1.53
2017-09-10T15:45:46.311Z,1.50
2017-09-10T15:48:14.503Z,1.80
2017-09-10T15:50:41.932Z,1.40
2017-09-10T15:53:09.363Z,1.57
2017-09-10T15:55:36.828Z,1.60
2017-09-10T15:58:04.303Z,1.70
2017-09-10T16:00:32.512Z,1.50
2017-09-10T16:02:59.944Z,1.70
2017-09-10T16:05:28.145Z,2.50
2017-09-10T16:07:55.565Z,1.70
2017-09-10T16:10:23.012Z,1.70
2017-09-10T16:12:50.456Z,1.53
2017-09-10T16:15:17.906Z,1.30
2017-09-10T16:17:45.362Z,1.50
2017-09-10T16:20:12.779Z,1.70
2017-09-10T16:22:40.224Z,1.70
2017-09-10T16:25:08.413Z,1.50
2017-09-10T16:27:35.840Z,1.50
2017-09-10T16:30:04.037Z,8.77
2017-09-10T16:32:31.465Z,2.20
2017-09-10T16:34:58.923Z,2.10
2017-09-10T16:37:26.352Z,1.80
2017-09-10T16:39:53.782Z,1.80
2017-09-10T16:42:21.207Z,2.00
2017-09-10T16:44:49.394Z,1.80
2017-09-10T16:47:16.823Z,2.13
2017-09-10T16:49:44.264Z,1.83
2017-09-10T16:52:11.703Z,1.70
2017-09-10T16:54:39.132Z,1.90
2017-09-10T16:57:06.560Z,2.30
2017-09-10T16:59:34.009Z,2.10
2017-09-10T17:02:02.212Z,1.43
2017-09-10T17:04:30.463Z,1.70
2017-09-10T17:06:58.676Z,1.90
2017-09-10T17:09:26.103Z,2.10
2017-09-10T17:11:54.368Z,1.70
2017-09-10T17:14:22.564Z,2.10
2017-09-10T17:16:50.754Z,2.50
2017-09-10T17:19:18.178Z,2.03
2017-09-10T17:21:45.609Z,1.77
2017-09-10T17:24:13.048Z,1.77
2017-09-10T17:26:40.472Z,2.20
2017-09-10T17:29:07.899Z,2.27
2017-09-10T17:31:36.092Z,1.90
2017-09-10T17:34:04.289Z,2.33
2017-09-10T17:36:31.716Z,1.90
2017-09-10T17:38:59.915Z,2.30
2017-09-10T17:41:27.588Z,2.33
2017-09-10T17:43:55.011Z,2.10
2017-09-10T17:46:23.222Z,2.07
2017-09-10T17:48:50.653Z,1.63
2017-09-10T17:51:18.072Z,2.97
2017-09-10T17:53:45.534Z,2.27
2017-09-10T17:56:13.027Z,2.33
2017-09-10T17:58:40.456Z,1.77
2017-09-10T18:01:07.904Z,2.47
2017-09-10T18:03:35.332Z,3.17
2017-09-10T18:06:02.749Z,2.70
2017-09-10T18:08:30.984Z,2.23
2017-09-10T18:10:58.416Z,2.50
2017-09-10T18:13:26.009Z,2.43
2017-09-10T18:15:53.446Z,2.60
2017-09-10T18:18:20.869Z,2.30
2017-09-10T18:20:48.317Z,2.43
2017-09-10T18:23:16.491Z,3.23
2017-09-10T18:25:43.932Z,2.07
2017-09-10T18:28:13.154Z,2.00
2017-09-10T18:30:40.584Z,2.87
2017-09-10T18:33:09.536Z,2.50
2017-09-10T18:35:36.976Z,3.43
2017-09-10T18:38:04.395Z,2.80
2017-09-10T18:40:32.596Z,2.97
2017-09-10T18:43:00.034Z,2.73
2017-09-10T18:45:28.216Z,2.70
2017-09-10T18:47:55.644Z,3.07
2017-09-10T18:50:23.844Z,3.10
2017-09-10T18:52:52.048Z,3.60
2017-09-10T18:55:19.479Z,3.10
2017-09-10T18:57:46.907Z,3.43
2017-09-10T19:00:15.112Z,3.30
2017-09-10T19:02:42.536Z,3.00
2017-09-10T19:05:10.759Z,2.90
2017-09-10T19:07:38.183Z,3.30
2017-09-10T19:10:08.403Z,3.33
2017-09-10T19:12:36.621Z,2.67
2017-09-10T19:15:04.133Z,3.03
2017-09-10T19:17:31.580Z,2.80
2017-09-10T19:19:59.025Z,2.30
2017-09-10T19:22:26.452Z,3.40
2017-09-10T19:24:53.897Z,2.43
2017-09-10T19:27:21.332Z,3.00
2017-09-10T19:29:48.763Z,3.20
2017-09-10T19:32:16.199Z,2.73
2017-09-10T19:34:43.643Z,3.63
2017-09-10T19:37:11.080Z,3.10
2017-09-10T19:39:38.514Z,4.00
2017-09-10T19:42:06.724Z,3.40
2017-09-10T19:44:34.155Z,3.40
2017-09-10T19:47:01.584Z,3.17
2017-09-10T19:49:29.776Z,2.60
2017-09-10T19:51:57.980Z,1.70
2017-09-10T19:54:25.423Z,2.20
2017-09-10T19:56:53.615Z,2.80
2017-09-10T19:59:21.037Z,2.50
2017-09-10T20:01:48.469Z,4.13
2017-09-10T20:04:15.900Z,2.43
2017-09-10T20:06:43.351Z,2.80
2017-09-10T20:09:10.760Z,3.50
2017-09-10T20:11:38.963Z,2.97
2017-09-10T20:14:06.401Z,3.40
2017-09-10T20:16:33.832Z,3.53
2017-09-10T20:19:01.291Z,3.33
2017-09-10T20:21:29.495Z,2.80
2017-09-10T20:23:56.920Z,3.20
2017-09-10T20:26:24.345Z,3.40
2017-09-10T20:28:52.540Z,3.20
2017-09-10T20:31:19.969Z,3.00
2017-09-10T20:33:47.403Z,3.23
2017-09-10T20:36:14.838Z,2.77
2017-09-10T20:38:43.051Z,3.37
2017-09-10T20:41:10.476Z,3.50
2017-09-10T20:43:37.914Z,2.80
2017-09-10T20:46:06.101Z,3.23
2017-09-10T20:48:35.591Z,3.00
2017-09-10T20:51:03.789Z,3.10
2017-09-10T20:53:31.992Z,3.77
2017-09-10T20:55:59.437Z,4.00
2017-09-10T20:58:26.851Z,3.13
2017-09-10T21:00:55.061Z,3.37
2017-09-10T21:03:22.514Z,3.53
2017-09-10T21:05:49.941Z,3.40
2017-09-10T21:08:17.388Z,3.20
2017-09-10T21:10:44.812Z,3.03
2017-09-10T21:13:12.260Z,4.23
2017-09-10T21:15:39.696Z,4.07
2017-09-10T21:18:07.122Z,3.60
2017-09-10T21:20:35.329Z,3.57
2017-09-10T21:23:02.757Z,4.17
2017-09-10T21:25:30.959Z,4.30
2017-09-10T21:27:58.389Z,3.43
2017-09-10T21:30:26.597Z,3.40
2017-09-10T21:32:54.017Z,3.97
2017-09-10T21:35:22.216Z,3.40
2017-09-10T21:37:49.645Z,3.53
2017-09-10T21:40:17.850Z,3.00
2017-09-10T21:42:45.276Z,3.70
2017-09-10T21:45:13.480Z,4.50
2017-09-10T21:47:40.911Z,4.53
2017-09-10T21:50:09.115Z,3.40
2017-09-10T21:52:36.547Z,4.47
2017-09-10T21:55:04.748Z,4.20
2017-09-10T21:57:32.181Z,3.20
2017-09-10T22:00:00.399Z,3.50
2017-09-10T22:02:27.823Z,3.63
2017-09-10T22:04:56.007Z,3.60
2017-09-10T22:07:23.445Z,3.70
2017-09-10T22:09:51.635Z,2.87
2017-09-10T22:12:19.069Z,3.10
2017-09-10T22:14:47.261Z,2.90
2017-09-10T22:17:14.686Z,3.73
2017-09-10T22:19:42.148Z,4.10
2017-09-10T22:22:09.640Z,3.23
2017-09-10T22:24:37.068Z,3.30
2017-09-10T22:27:05.260Z,3.40
2017-09-10T22:29:33.457Z,3.63
2017-09-10T22:32:00.884Z,3.07
2017-09-10T22:34:29.080Z,3.23
2017-09-10T22:36:56.510Z,2.57
2017-09-10T22:39:24.704Z,2.23
2017-09-10T22:41:52.145Z,3.07
2017-09-10T22:44:20.340Z,3.60
2017-09-10T22:46:47.767Z,2.80
2017-09-10T22:49:15.235Z,2.67
2017-09-10T22:51:43.436Z,2.90
2017-09-10T22:54:10.860Z,3.00
2017-09-10T22:56:39.063Z,3.50
2017-09-10T22:59:06.497Z,2.20
2017-09-10T23:01:33.920Z,2.20
2017-09-10T23:04:01.353Z,2.67
2017-09-10T23:06:28.780Z,3.13
2017-09-10T23:08:56.208Z,2.37
2017-09-10T23:11:23.636Z,2.23
2017-09-10T23:13:51.074Z,2.47
2017-09-10T23:16:18.496Z,2.73
2017-09-10T23:18:46.685Z,2.73
2017-09-10T23:21:14.135Z,2.33
2017-09-10T23:23:42.339Z,2.63
2017-09-10T23:26:09.764Z,2.30
2017-09-10T23:28:37.205Z,2.83
2017-09-10T23:31:05.400Z,2.30
2017-09-10T23:33:33.608Z,3.47
2017-09-10T23:36:03.072Z,2.60
2017-09-10T23:38:31.266Z,3.17
2017-09-10T23:40:58.704Z,2.73
2017-09-10T23:43:26.900Z,3.00
2017-09-10T23:45:54.332Z,2.70
2017-09-10T23:48:22.543Z,2.60
2017-09-10T23:50:49.972Z,3.20
2017-09-10T23:53:17.400Z,3.33
2017-09-10T23:55:44.828Z,2.70
2017-09-10T23:58:12.247Z,3.30
